Time;durP1;ratioP1;P1;durP2;ratioP2;P2;SDS_P1;SDS_P2;PMS_P1;PMS_P2;Temp;Humidity;BMP_temperature;BMP_pressure;BME280_temperature;BME280_humidity;BME280_pressure;Samples;Min_cycle;Max_cycle;Signal;HPM_P1;HPM_P2
2021/03/05 00:00:41;;;;;;;14.77;3.13;;;;;;;2.31;89.48;100904.94;5076465;28;20496;-74
2021/03/05 00:03:08;;;;;;;22.17;3.75;;;;;;;2.28;90.02;100908.47;5076952;28;20106;-76
2021/03/05 00:05:37;;;;;;;12.75;3.25;;;;;;;2.26;88.89;100907.63;5059511;28;20064;-77
2021/03/05 00:08:04;;;;;;;16.33;3.70;;;;;;;2.37;90.08;100906.59;5076360;28;20509;-75
2021/03/05 00:10:33;;;;;;;20.20;4.25;;;;;;;2.35;89.33;100911.91;5074794;28;20056;-75
2021/03/05 00:12:59;;;;;;;16.20;3.05;;;;;;;2.35;89.85;100916.28;5076078;28;20071;-75
2021/03/05 00:15:29;;;;;;;19.30;4.20;;;;;;;2.35;90.42;100926.81;5058465;28;20380;-74
2021/03/05 00:17:55;;;;;;;18.77;4.18;;;;;;;2.25;90.68;100921.69;5075803;28;20114;-77
2021/03/05 00:20:24;;;;;;;15.25;4.18;;;;;;;2.24;91.05;100927.84;5075091;28;20059;-76
2021/03/05 00:22:51;;;;;;;18.92;4.22;;;;;;;2.17;91.43;100924.44;5075819;28;20055;-77
2021/03/05 00:25:17;;;;;;;18.25;4.75;;;;;;;2.08;91.02;100923.69;5076191;28;20102;-76
2021/03/05 00:27:44;;;;;;;19.08;3.78;;;;;;;2.17;91.88;100920.91;5082694;28;20060;-74
2021/03/05 00:30:12;;;;;;;19.17;3.65;;;;;;;2.08;91.69;100921.94;5086959;28;20052;-74
2021/03/05 00:32:38;;;;;;;18.73;4.10;;;;;;;2.09;92.92;100920.16;5081404;28;20483;-76
2021/03/05 00:35:08;;;;;;;20.35;4.53;;;;;;;2.16;92.33;100932.34;5042550;28;20140;-76
2021/03/05 00:37:35;;;;;;;23.48;4.25;;;;;;;2.14;92.74;100923.59;5076064;28;20060;-75
2021/03/05 00:40:03;;;;;;;17.55;4.05;;;;;;;2.21;92.92;100935.78;5076643;28;20459;-75
2021/03/05 00:42:29;;;;;;;21.50;4.60;;;;;;;2.22;93.43;100919.09;5079375;28;20055;-76
2021/03/05 00:44:56;;;;;;;15.35;4.03;;;;;;;2.22;92.51;100921.72;5058582;28;20056;-77
2021/03/05 00:47:22;;;;;;;25.80;4.38;;;;;;;2.11;92.21;100902.56;5075679;28;20048;-74
2021/03/05 00:49:48;;;;;;;17.00;4.20;;;;;;;2.26;92.64;100918.16;5057900;28;20059;-74
2021/03/05 00:52:14;;;;;;;16.10;4.38;;;;;;;2.41;92.01;100938.13;5075284;28;20060;-75
2021/03/05 00:54:40;;;;;;;27.88;5.30;;;;;;;2.42;92.37;100937.25;5075186;28;20051;-74
2021/03/05 00:57:07;;;;;;;20.40;4.10;;;;;;;2.40;91.31;100933.75;5075112;28;20052;-77
2021/03/05 00:59:33;;;;;;;18.75;4.07;;;;;;;2.23;90.33;100920.81;5057587;28;20411;-74
2021/03/05 01:02:00;;;;;;;22.58;6.38;;;;;;;2.19;90.47;100929.69;5075100;28;20060;-74
2021/03/05 01:04:26;;;;;;;17.98;4.03;;;;;;;2.26;91.04;100944.50;5075260;28;20044;-73
2021/03/05 01:06:52;;;;;;;22.90;4.82;;;;;;;2.24;91.11;100938.38;5041201;28;20052;-77
2021/03/05 01:09:19;;;;;;;26.60;5.78;;;;;;;2.23;92.05;100931.38;5075285;28;20426;-75
2021/03/05 01:11:46;;;;;;;22.90;3.97;;;;;;;2.30;91.77;100933.03;5074877;28;20056;-74
2021/03/05 01:14:12;;;;;;;14.85;4.32;;;;;;;2.33;91.07;100940.00;5074843;28;20456;-75
2021/03/05 01:16:38;;;;;;;16.95;4.63;;;;;;;2.41;91.63;100945.19;5075201;28;20044;-76
2021/03/05 01:19:07;;;;;;;30.75;5.55;;;;;;;2.41;91.25;100945.19;5074928;28;20484;-74
2021/03/05 01:21:34;;;;;;;18.10;4.63;;;;;;;2.27;90.15;100916.38;5074905;28;20426;-78
2021/03/05 01:24:00;;;;;;;18.35;4.35;;;;;;;2.41;91.06;100946.03;5057471;28;20044;-77
2021/03/05 01:26:28;;;;;;;21.40;4.70;;;;;;;2.43;90.24;100948.66;5075230;28;20049;-75
2021/03/05 01:28:55;;;;;;;20.35;4.20;;;;;;;2.40;90.79;100943.44;5074813;28;20364;-77
2021/03/05 01:31:21;;;;;;;16.17;3.97;;;;;;;2.41;90.98;100942.53;5075333;28;20122;-77
2021/03/05 01:33:47;;;;;;;20.08;4.78;;;;;;;2.38;90.66;100940.81;5075042;28;20128;-74
2021/03/05 01:36:15;;;;;;;16.55;4.50;;;;;;;2.37;90.70;100944.34;5057273;28;20056;-77
2021/03/05 01:38:41;;;;;;;26.23;5.60;;;;;;;2.39;90.44;100944.34;5074772;28;20185;-74
2021/03/05 01:41:07;;;;;;;20.60;4.65;;;;;;;2.44;91.02;100947.75;5074805;28;20053;-75
2021/03/05 01:43:37;;;;;;;21.92;4.30;;;;;;;2.42;91.07;100944.28;5074257;28;20418;-76
2021/03/05 01:46:03;;;;;;;18.90;4.43;;;;;;;2.43;91.28;100943.38;5074438;28;20422;-75
2021/03/05 01:48:31;;;;;;;18.00;4.43;;;;;;;2.27;91.84;100924.28;5040508;28;20354;-76
2021/03/05 01:50:57;;;;;;;15.82;3.88;;;;;;;2.47;91.12;100950.38;5074587;28;20074;-74
2021/03/05 01:53:23;;;;;;;15.82;3.95;;;;;;;2.47;89.61;100937.19;5074524;28;20051;-77
2021/03/05 01:55:50;;;;;;;29.73;5.35;;;;;;;2.42;89.45;100949.56;5074615;28;20064;-75
2021/03/05 01:58:16;;;;;;;17.35;5.00;;;;;;;2.36;90.75;100945.25;5074675;28;20161;-75
2021/03/05 02:00:44;;;;;;;21.70;5.55;;;;;;;2.34;90.42;100948.78;5074588;28;20052;-74
2021/03/05 02:03:11;;;;;;;18.70;5.32;;;;;;;2.31;90.75;100947.94;5074634;28;20047;-74
2021/03/05 02:05:38;;;;;;;16.75;5.38;;;;;;;2.33;90.00;100954.97;5074518;28;20063;-78
2021/03/05 02:08:07;;;;;;;19.85;4.90;;;;;;;2.41;88.83;100953.09;5059872;28;20052;-76
2021/03/05 02:10:34;;;;;;;16.80;3.75;;;;;;;2.37;88.33;100940.84;5078197;28;20052;-74
2021/03/05 02:13:00;;;;;;;17.42;4.40;;;;;;;2.10;88.77;100928.03;5077892;28;20430;-75
2021/03/05 02:15:27;;;;;;;16.52;4.03;;;;;;;2.26;88.76;100956.78;5078493;28;20056;-76
2021/03/05 02:18:06;;;;;;;17.73;5.32;;;;;;;2.39;88.34;100960.16;5060422;28;20051;-75
2021/03/05 02:20:47;;;;;;;20.08;4.13;;;;;;;2.37;88.46;100956.66;5078082;28;20053;-77
2021/03/05 02:23:26;;;;;;;;;;;;;;;2.27;88.38;100954.16;5078253;28;20060;-75
2021/03/05 02:26:21;;;;;;;20.50;6.03;;;;;;;2.20;89.08;100965.66;5078011;28;19928;-73
2021/03/05 02:29:23;;;;;;;17.67;4.10;;;;;;;2.27;86.79;100955.91;5077854;28;20113;-75
2021/03/05 02:31:55;;;;;;;21.23;4.25;;;;;;;2.17;88.02;100963.94;5077036;28;20040;-75
2021/03/05 02:34:27;;;;;;;24.98;5.03;;;;;;;2.20;88.45;100964.78;5077972;28;20111;-76
2021/03/05 02:37:25;;;;;;;18.05;4.25;;;;;;;2.24;88.08;100962.06;5060511;28;20052;-74
2021/03/05 02:40:00;;;;;;;21.85;5.55;;;;;;;2.22;87.76;100966.50;5065626;28;20106;-72
2021/03/05 02:42:43;;;;;;;17.92;4.40;;;;;;;2.16;87.80;100963.94;5077645;28;20131;-74
2021/03/05 02:45:13;;;;;;;23.35;4.35;;;;;;;2.22;88.12;100963.00;5077607;28;20051;-73
2021/03/05 02:47:43;;;;;;;18.88;3.58;;;;;;;2.06;87.25;100954.44;5060056;28;20422;-73
2021/03/05 02:50:11;;;;;;;26.63;4.18;;;;;;;2.11;88.11;100964.00;5077584;28;20141;-73
2021/03/05 02:52:40;;;;;;;18.52;3.95;;;;;;;2.17;88.01;100961.31;5059990;28;20071;-74
2021/03/05 02:55:08;;;;;;;14.43;3.67;;;;;;;2.14;87.29;100957.84;5076855;28;20044;-73
2021/03/05 02:57:41;;;;;;;16.75;4.28;;;;;;;2.20;88.86;100949.84;5083827;28;20056;-72
2021/03/05 03:00:09;;;;;;;20.08;4.82;;;;;;;2.23;87.43;100962.13;5090837;28;20114;-73
2021/03/05 03:02:36;;;;;;;21.20;6.22;;;;;;;2.26;87.19;100959.44;5072485;28;20056;-75
2021/03/05 03:05:04;;;;;;;21.38;3.97;;;;;;;2.20;87.65;100957.75;5078250;28;20044;-76
2021/03/05 03:07:46;;;;;;;21.38;4.75;;;;;;;2.27;87.83;100961.16;5078290;28;20060;-74
2021/03/05 03:10:13;;;;;;;20.98;5.15;;;;;;;2.33;88.06;100962.88;5077448;28;20049;-72
2021/03/05 03:12:39;;;;;;;24.77;5.22;;;;;;;2.35;88.13;100966.34;5077150;28;20107;-76
2021/03/05 03:15:14;;;;;;;26.38;5.88;;;;;;;2.26;87.47;100975.25;5077263;28;20048;-77
2021/03/05 03:17:43;;;;;;;26.48;5.95;;;;;;;2.27;88.64;100976.97;5077185;28;20128;-74
2021/03/05 03:20:14;;;;;;;21.23;5.15;;;;;;;2.35;87.55;100982.16;5075854;28;20395;-76
2021/03/05 03:22:41;;;;;;;18.33;5.07;;;;;;;2.24;88.18;100977.03;5077013;28;20056;-73
2021/03/05 03:25:08;;;;;;;22.58;6.53;;;;;;;2.21;88.55;100983.19;5059083;28;20422;-73
2021/03/05 03:27:35;;;;;;;23.23;5.75;;;;;;;2.22;88.65;100987.56;5076764;28;20052;-74
2021/03/05 03:30:03;;;;;;;17.65;5.43;;;;;;;2.20;89.39;100981.47;5059042;28;20421;-75
2021/03/05 03:32:30;;;;;;;17.38;5.88;;;;;;;2.33;88.41;100990.06;5075641;28;20422;-75
2021/03/05 03:34:57;;;;;;;27.15;7.43;;;;;;;2.28;88.91;100989.25;5076917;28;20076;-74
2021/03/05 03:37:23;;;;;;;28.10;6.72;;;;;;;2.26;89.18;101001.56;5075520;28;20049;-74
2021/03/05 03:39:50;;;;;;;22.13;6.70;;;;;;;2.22;90.19;101000.75;5076059;28;20362;-75
2021/03/05 03:42:16;;;;;;;20.42;6.78;;;;;;;2.16;89.56;100979.75;5076506;28;20051;-74
2021/03/05 03:44:42;;;;;;;26.77;7.85;;;;;;;2.26;89.70;101004.22;5075446;28;20044;-74
2021/03/05 03:47:09;;;;;;;18.67;7.00;;;;;;;2.29;90.05;101005.03;5076364;28;20468;-77
2021/03/05 03:49:56;;;;;;;25.98;7.70;;;;;;;2.23;90.45;100997.22;5076288;28;20455;-73
2021/03/05 03:52:45;;;;;;;28.80;7.85;;;;;;;2.28;90.67;101007.69;5076071;28;20063;-73
2021/03/05 03:55:12;;;;;;;24.38;7.93;;;;;;;2.34;90.74;101001.50;5075234;28;20094;-75
2021/03/05 03:57:41;;;;;;;22.35;8.02;;;;;;;2.22;90.38;100999.91;5075937;28;20131;-75
2021/03/05 04:00:11;;;;;;;22.77;7.80;;;;;;;2.20;91.29;101001.66;5075903;28;20357;-73
2021/03/05 04:02:38;;;;;;;20.23;8.60;;;;;;;2.20;90.59;101013.06;5076185;28;20052;-76
2021/03/05 04:05:09;;;;;;;19.90;8.70;;;;;;;2.25;91.79;101011.25;5076082;28;20523;-73
2021/03/05 04:07:38;;;;;;;26.63;8.60;;;;;;;2.33;91.12;101015.56;5076332;28;20052;-76
2021/03/05 04:10:05;;;;;;;26.23;9.95;;;;;;;2.36;91.09;101004.97;5075807;28;20460;-74
2021/03/05 04:12:32;;;;;;;26.00;9.43;;;;;;;2.40;91.09;101011.94;5075775;28;20426;-75
2021/03/05 04:15:00;;;;;;;22.42;9.70;;;;;;;2.29;91.45;101015.56;5076155;28;20098;-74
2021/03/05 04:17:27;;;;;;;30.40;11.13;;;;;;;2.29;91.18;101012.09;5058071;28;20098;-74
2021/03/05 04:19:56;;;;;;;24.30;9.57;;;;;;;2.34;91.70;101017.28;5075503;28;20509;-73
2021/03/05 04:22:23;;;;;;;19.38;10.48;;;;;;;2.27;91.69;101014.75;5075528;28;20365;-75
2021/03/05 04:24:50;;;;;;;29.30;11.13;;;;;;;2.30;91.60;101021.72;5058268;28;20127;-73
2021/03/05 04:27:17;;;;;;;25.60;11.55;;;;;;;2.28;91.37;101027.00;5076196;28;20090;-76
2021/03/05 04:29:43;;;;;;;31.52;11.80;;;;;;;2.14;92.09;101021.91;5075456;28;20094;-73
2021/03/05 04:32:09;;;;;;;26.75;11.30;;;;;;;2.15;91.30;101020.16;5057830;28;20048;-76
2021/03/05 04:34:35;;;;;;;24.90;12.52;;;;;;;2.11;91.80;101007.91;5076058;28;20362;-73
2021/03/05 04:37:02;;;;;;;23.65;13.32;;;;;;;2.18;91.80;101025.38;5075884;28;20331;-74
2021/03/05 04:39:28;;;;;;;21.88;12.75;;;;;;;2.34;91.60;101038.38;5075952;28;20052;-75
2021/03/05 04:41:54;;;;;;;29.85;13.63;;;;;;;2.33;91.40;101040.13;5075733;28;20187;-74
2021/03/05 04:44:20;;;;;;;21.75;12.60;;;;;;;2.31;90.79;101031.38;5075513;28;20381;-74
2021/03/05 04:46:47;;;;;;;39.22;14.98;;;;;;;2.22;90.65;101044.66;5076583;28;20110;-73
2021/03/05 04:49:13;;;;;;;25.85;14.50;;;;;;;2.30;90.90;101048.06;5075818;28;20357;-74
2021/03/05 04:51:39;;;;;;;23.02;13.93;;;;;;;2.21;89.83;101056.97;5041008;28;20106;-75
2021/03/05 04:54:05;;;;;;;23.98;14.38;;;;;;;2.11;90.21;101044.78;5074401;28;20052;-73
2021/03/05 04:56:32;;;;;;;23.02;14.02;;;;;;;2.09;89.55;101046.56;5075201;28;20124;-73
2021/03/05 04:58:58;;;;;;;21.10;13.95;;;;;;;2.09;89.38;101067.63;5057898;28;20052;-76
2021/03/05 05:01:24;;;;;;;19.40;13.40;;;;;;;2.09;88.76;101068.50;5075487;28;20051;-75
2021/03/05 05:03:50;;;;;;;17.05;12.10;;;;;;;1.71;87.28;101012.75;5075209;28;20053;-75
2021/03/05 05:06:17;;;;;;;19.55;12.70;;;;;;;1.97;88.13;101072.13;5075324;28;20376;-74
2021/03/05 05:08:43;;;;;;;17.95;11.95;;;;;;;1.96;87.23;101078.28;5075384;28;20084;-74
2021/03/05 05:11:09;;;;;;;16.15;11.38;;;;;;;1.88;87.53;101069.59;5074981;28;20052;-73
2021/03/05 05:13:35;;;;;;;14.45;11.07;;;;;;;1.94;87.35;101089.72;5057743;28;20111;-75
2021/03/05 05:16:01;;;;;;;17.83;11.77;;;;;;;1.96;86.66;101090.59;5075346;28;20064;-73
2021/03/05 05:18:28;;;;;;;16.00;11.70;;;;;;;1.84;86.24;101094.19;5075158;28;20127;-73
2021/03/05 05:20:54;;;;;;;15.63;11.35;;;;;;;1.88;87.18;101096.81;5074565;28;20049;-74
2021/03/05 05:23:21;;;;;;;16.05;11.10;;;;;;;1.88;87.69;101107.34;5057404;28;20430;-74
2021/03/05 05:25:47;;;;;;;19.13;11.77;;;;;;;1.57;87.24;101070.75;5075547;28;20080;-74
2021/03/05 05:28:14;;;;;;;14.95;10.70;;;;;;;1.84;87.02;101113.50;5079894;28;20434;-74
2021/03/05 05:30:40;;;;;;;16.90;10.60;;;;;;;1.85;87.15;101111.75;5072381;28;20060;-74
2021/03/05 05:33:06;;;;;;;15.35;12.23;;;;;;;1.75;87.83;101111.81;5084774;28;20059;-75
2021/03/05 05:35:32;;;;;;;17.67;11.65;;;;;;;1.67;87.38;101097.88;5075042;28;20131;-75
2021/03/05 05:37:59;;;;;;;16.30;10.98;;;;;;;1.79;87.47;101109.19;5057311;28;20052;-75
2021/03/05 05:40:26;;;;;;;15.18;11.55;;;;;;;1.70;87.70;101118.03;5074348;28;20109;-75
2021/03/05 05:42:53;;;;;;;16.23;11.15;;;;;;;1.64;87.00;101121.59;5075376;28;20437;-75
2021/03/05 05:45:19;;;;;;;16.48;11.30;;;;;;;1.61;88.08;101125.13;5078019;28;20041;-75
2021/03/05 05:47:46;;;;;;;17.55;10.75;;;;;;;1.55;87.21;101124.28;5077953;28;20052;-75
2021/03/05 05:50:13;;;;;;;19.17;10.68;;;;;;;1.61;88.21;101124.25;5077032;28;20048;-75
2021/03/05 05:52:41;;;;;;;16.35;10.85;;;;;;;1.65;87.94;101119.81;5077950;28;20076;-75
2021/03/05 05:55:08;;;;;;;18.10;11.20;;;;;;;1.50;87.81;101124.31;5078113;28;20430;-75
2021/03/05 05:57:37;;;;;;;15.00;11.32;;;;;;;1.38;87.42;101127.94;5060848;28;20098;-75
2021/03/05 06:00:09;;;;;;;15.10;10.82;;;;;;;1.36;87.80;101124.41;5079185;28;20052;-75
2021/03/05 06:02:36;;;;;;;15.65;10.65;;;;;;;1.38;88.66;101132.31;5079359;28;20059;-75
2021/03/05 06:05:03;;;;;;;15.52;10.10;;;;;;;1.29;87.37;101138.50;5078869;28;20303;-74
2021/03/05 06:07:31;;;;;;;14.52;10.05;;;;;;;1.35;88.16;101143.72;5078382;28;20102;-75
2021/03/05 06:10:06;;;;;;;18.20;9.82;;;;;;;1.20;87.78;101145.56;5077782;28;20372;-75
2021/03/05 06:12:33;;;;;;;16.40;9.05;;;;;;;1.18;86.22;101149.97;5077632;28;20056;-74
2021/03/05 06:15:00;;;;;;;13.55;8.07;;;;;;;1.05;86.09;101150.94;5078961;28;20090;-75
2021/03/05 06:18:00;;;;;;;14.88;8.15;;;;;;;1.11;87.13;101163.16;5077544;28;20350;-75
2021/03/05 06:20:43;;;;;;;11.85;6.90;;;;;;;0.99;86.50;101150.97;5034953;28;20056;-74
2021/03/05 06:23:12;;;;;;;13.27;7.20;;;;;;;0.99;85.99;101158.84;5078077;28;20438;-74
2021/03/05 06:25:39;;;;;;;10.18;7.18;;;;;;;0.89;86.74;101166.78;5077952;28;20055;-74
2021/03/05 06:28:17;;;;;;;12.07;7.65;;;;;;;0.75;86.43;101173.81;5078323;28;20118;-74
2021/03/05 06:30:44;;;;;;;13.45;7.60;;;;;;;0.69;87.07;101181.75;5077870;28;20060;-74
2021/03/05 06:33:31;;;;;;;10.60;7.60;;;;;;;0.65;87.74;101189.63;5078038;28;20342;-74
2021/03/05 06:36:20;;;;;;;12.32;7.60;;;;;;;0.63;87.39;101195.78;5077770;28;20438;-76
2021/03/05 06:38:47;;;;;;;11.90;7.88;;;;;;;0.49;87.56;101194.06;5077979;28;20060;-72
2021/03/05 06:41:27;;;;;;;12.57;7.15;;;;;;;0.52;88.50;101193.19;5040162;28;20449;-73
2021/03/05 06:44:00;;;;;;;14.25;7.65;;;;;;;0.44;88.17;101200.22;5057407;28;20327;-74
2021/03/05 06:46:41;;;;;;;13.98;7.35;;;;;;;0.43;88.54;101201.94;5062672;28;20048;-72
2021/03/05 06:49:10;;;;;;;11.45;8.02;;;;;;;0.38;88.18;101209.84;5074220;28;20040;-71
2021/03/05 06:51:38;;;;;;;15.10;8.57;;;;;;;0.31;88.21;101202.84;5076946;28;20052;-73
2021/03/05 06:54:12;;;;;;;11.13;7.40;;;;;;;0.40;88.28;101218.59;5073067;28;20048;-74
2021/03/05 06:56:41;;;;;;;13.80;7.97;;;;;;;0.19;88.14;101232.63;5077252;28;20052;-73
2021/03/05 06:59:13;;;;;;;12.00;7.78;;;;;;;0.15;88.90;101219.53;5074596;28;20495;-74
2021/03/05 07:01:50;;;;;;;26.23;8.90;;;;;;;0.15;88.58;101235.28;5076980;28;20060;-73
2021/03/05 07:04:20;;;;;;;18.10;9.63;;;;;;;0.20;89.05;101241.38;5075530;28;20323;-72
2021/03/05 07:06:46;;;;;;;11.27;7.53;;;;;;;0.13;88.04;101238.75;5073443;28;20063;-73
2021/03/05 07:09:23;;;;;;;13.45;7.95;;;;;;;0.19;88.04;101244.88;5076881;28;20052;-73
2021/03/05 07:11:52;;;;;;;13.07;8.32;;;;;;;0.05;88.61;101251.00;5075875;28;20068;-76
2021/03/05 07:14:19;;;;;;;13.25;8.43;;;;;;;0.02;88.12;101250.13;5075984;28;20049;-74
2021/03/05 07:16:49;;;;;;;12.00;7.32;;;;;;;0.11;88.86;101265.91;5076971;28;20109;-73
2021/03/05 07:19:20;;;;;;;16.85;8.70;;;;;;;0.12;88.62;101267.66;5076985;28;20056;-75
2021/03/05 07:21:48;;;;;;;14.13;7.32;;;;;;;0.17;87.77;101280.75;5059038;28;20052;-73
2021/03/05 07:24:18;;;;;;;12.80;7.35;;;;;;;0.12;88.57;101279.00;5076124;28;20048;-77
2021/03/05 07:26:52;;;;;;;12.82;7.13;;;;;;;0.10;88.21;101280.75;5076308;28;20053;-75
2021/03/05 07:29:27;;;;;;;13.15;6.90;;;;;;;0.19;88.06;101287.78;5076562;28;20434;-73
2021/03/05 07:32:15;;;;;;;12.10;7.40;;;;;;;0.20;86.30;101286.00;5076963;28;20048;-75
2021/03/05 07:34:46;;;;;;;15.65;7.03;;;;;;;0.28;87.33;101288.63;5042074;28;20322;-73
2021/03/05 07:37:14;;;;;;;14.25;7.32;;;;;;;0.30;87.75;101285.16;5059054;28;20056;-72
2021/03/05 07:39:48;;;;;;;12.35;6.82;;;;;;;0.37;87.60;101293.88;5076488;28;20049;-73
2021/03/05 07:42:16;;;;;;;10.40;5.90;;;;;;;0.42;86.31;101301.78;5076713;28;20082;-75
2021/03/05 07:44:43;;;;;;;10.95;6.60;;;;;;;0.24;85.12;101282.50;5059027;28;20048;-76
2021/03/05 07:47:14;;;;;;;12.73;7.03;;;;;;;0.32;85.81;101299.13;5076735;28;20048;-73
2021/03/05 07:49:42;;;;;;;10.23;6.15;;;;;;;0.37;85.68;101307.00;5058889;28;20080;-74
2021/03/05 07:52:09;;;;;;;11.45;6.15;;;;;;;0.35;85.55;101296.53;5059450;28;20055;-73
2021/03/05 07:54:39;;;;;;;13.73;6.47;;;;;;;0.41;85.09;101311.41;5076771;28;20057;-75
2021/03/05 07:57:28;;;;;;;10.77;5.70;;;;;;;0.41;83.43;101316.66;5076781;28;20048;-74
2021/03/05 08:00:02;;;;;;;9.68;6.32;;;;;;;0.40;85.32;101322.78;5076536;28;20125;-75
2021/03/05 08:02:52;;;;;;;8.43;5.20;;;;;;;0.55;84.25;101324.53;5088522;28;20051;-73
2021/03/05 08:05:56;;;;;;;8.95;5.88;;;;;;;0.56;83.29;101331.53;5070143;28;20048;-72
2021/03/05 08:08:25;;;;;;;10.98;5.10;;;;;;;0.55;82.05;101329.81;4995533;28;20459;-75
2021/03/05 08:10:55;;;;;;;13.43;5.55;;;;;;;0.59;82.67;101335.94;5063796;28;20135;-73
2021/03/05 08:16:26;;;;;;;7.63;4.80;;;;;;;0.70;81.91;101343.78;5076138;28;20044;-73
2021/03/05 08:19:15;;;;;;;8.20;4.50;;;;;;;0.74;81.31;101348.16;5075852;28;20056;-73
2021/03/05 08:21:50;;;;;;;7.47;4.15;;;;;;;0.86;81.79;101355.19;5045975;28;20056;-75
2021/03/05 08:24:20;;;;;;;9.15;4.90;;;;;;;0.91;80.20;101348.13;5074097;28;20045;-75
2021/03/05 08:27:20;;;;;;;7.30;4.88;;;;;;;1.03;80.81;101355.16;5075465;28;20590;-75
2021/03/05 08:29:46;;;;;;;12.07;4.45;;;;;;;1.04;79.81;101364.78;5060841;28;20052;-78
2021/03/05 08:32:30;;;;;;;8.30;4.32;;;;;;;1.01;78.97;101367.41;5075260;28;20126;-77
2021/03/05 08:34:58;;;;;;;9.00;4.38;;;;;;;0.84;78.56;101362.16;5074023;28;20436;-73
2021/03/05 08:37:31;;;;;;;8.13;3.97;;;;;;;0.94;78.48;101372.66;5075345;28;20131;-76
2021/03/05 08:40:12;;;;;;;8.77;3.90;;;;;;;0.96;77.54;101375.28;5075109;28;20056;-77
2021/03/05 08:42:49;;;;;;;9.30;4.30;;;;;;;0.90;77.96;101378.81;5075289;28;20349;-77
2021/03/05 08:45:33;;;;;;;7.68;3.83;;;;;;;0.96;77.90;101367.41;5074970;28;20456;-74
2021/03/05 08:48:02;;;;;;;6.18;3.40;;;;;;;1.08;79.50;101377.91;5075256;28;20053;-76
2021/03/05 08:50:34;;;;;;;7.22;3.95;;;;;;;1.08;77.19;101369.13;5074951;28;20055;-75
2021/03/05 08:53:03;;;;;;;8.35;3.70;;;;;;;1.14;77.07;101373.53;5075068;28;20365;-74
2021/03/05 08:55:41;;;;;;;6.47;3.30;;;;;;;1.23;78.44;101381.38;5075211;28;20047;-75
2021/03/05 08:58:13;;;;;;;7.40;3.05;;;;;;;1.28;75.35;101378.72;5058790;28;20055;-74
2021/03/05 09:00:40;;;;;;;5.88;3.50;;;;;;;1.35;75.44;101375.19;5074822;28;20048;-75
2021/03/05 09:03:12;;;;;;;7.05;3.20;;;;;;;1.40;75.92;101376.06;5074219;28;20090;-75
2021/03/05 09:05:42;;;;;;;10.45;3.55;;;;;;;1.48;74.52;101376.91;5057472;28;20127;-78
2021/03/05 09:08:13;;;;;;;6.70;3.05;;;;;;;1.59;73.75;101383.91;5075253;28;20049;-73
2021/03/05 09:10:46;;;;;;;5.95;3.00;;;;;;;1.55;74.45;101367.25;5073897;28;20323;-77
2021/03/05 09:13:15;;;;;;;7.85;3.08;;;;;;;1.83;75.33;101395.19;5075060;28;20848;-77
2021/03/05 09:15:43;;;;;;;6.22;2.63;;;;;;;1.82;72.86;101396.09;5074961;28;20054;-75
2021/03/05 09:18:19;;;;;;;4.82;2.25;;;;;;;1.77;72.31;101388.22;5075108;28;20063;-77
2021/03/05 09:20:51;;;;;;;6.60;2.58;;;;;;;1.97;72.18;101408.31;5057187;28;20049;-73
2021/03/05 09:23:40;;;;;;;4.22;2.72;;;;;;;2.05;72.38;101406.50;5074839;28;20448;-78
2021/03/05 09:26:08;;;;;;;11.02;3.00;;;;;;;1.98;69.24;101400.41;5075020;28;20055;-78
2021/03/05 09:28:40;;;;;;;7.93;2.95;;;;;;;1.99;70.71;101404.78;5075092;28;20048;-74
2021/03/05 09:31:08;;;;;;;6.40;2.50;;;;;;;1.97;70.29;101403.91;5075000;28;20052;-77
2021/03/05 09:33:37;;;;;;;6.45;2.55;;;;;;;1.89;67.57;101401.31;5074983;28;20120;-74
2021/03/05 09:36:03;;;;;;;6.07;2.30;;;;;;;1.87;67.91;101410.09;5074561;28;20054;-74
2021/03/05 09:38:30;;;;;;;6.45;2.45;;;;;;;1.84;69.07;101405.72;5074054;28;20060;-76
2021/03/05 09:41:16;;;;;;;5.28;2.08;;;;;;;2.05;67.82;101424.94;5057004;28;20064;-77
2021/03/05 09:43:44;;;;;;;4.80;2.40;;;;;;;2.20;68.50;101417.84;5057039;28;20055;-73
2021/03/05 09:46:24;;;;;;;3.83;1.80;;;;;;;2.24;66.85;101417.78;5074644;28;20052;-74
2021/03/05 09:48:52;;;;;;;7.53;2.10;;;;;;;2.18;63.04;101423.09;5056893;28;20056;-74
2021/03/05 09:51:19;;;;;;;2.13;1.45;;;;;;;2.26;65.63;101437.13;5074658;28;20405;-75
2021/03/05 09:53:57;;;;;;;5.13;1.90;;;;;;;2.42;66.05;101435.28;5074617;28;20056;-73
2021/03/05 09:56:26;;;;;;;4.07;1.30;;;;;;;2.53;63.29;101427.28;5074618;28;20377;-73
2021/03/05 09:58:55;;;;;;;7.95;2.80;;;;;;;2.56;62.36;101440.44;5074508;28;20361;-72
2021/03/05 10:01:22;;;;;;;3.38;1.55;;;;;;;2.64;63.77;101442.13;5056886;28;20048;-75
2021/03/05 10:03:58;;;;;;;1.88;1.25;;;;;;;2.81;61.64;101444.66;5056981;28;20332;-75
2021/03/05 10:06:27;;;;;;;5.70;1.60;;;;;;;2.81;62.92;101447.28;5074761;28;20048;-74
2021/03/05 10:09:04;;;;;;;1.95;1.15;;;;;;;2.96;61.88;101448.94;5057402;28;20052;-74
2021/03/05 10:11:36;;;;;;;4.40;2.40;;;;;;;2.98;59.93;101449.78;5074383;28;20416;-74
2021/03/05 10:14:07;;;;;;;3.15;1.20;;;;;;;2.99;59.32;101443.63;5075033;28;20059;-74
2021/03/05 10:16:38;;;;;;;4.53;1.60;;;;;;;3.09;62.09;101454.97;5074059;28;20045;-76
2021/03/05 10:19:07;;;;;;;7.28;1.70;;;;;;;3.18;59.70;101441.72;5075372;28;20059;-73
2021/03/05 10:21:38;;;;;;;4.18;1.30;;;;;;;3.25;59.39;101447.78;5074755;28;20052;-71
2021/03/05 10:24:08;;;;;;;3.28;1.60;;;;;;;3.32;59.60;101444.19;5076404;28;20052;-70
2021/03/05 10:26:34;;;;;;;3.47;1.52;;;;;;;3.48;59.07;101444.06;5085172;28;20109;-70
2021/03/05 10:29:00;;;;;;;4.18;1.65;;;;;;;3.44;55.98;101447.59;5086845;28;20052;-74
2021/03/05 10:31:41;;;;;;;1.70;1.30;;;;;;;3.28;57.12;101410.81;5079944;28;20059;-73
2021/03/05 10:34:35;;;;;;;5.03;1.20;;;;;;;3.65;58.14;101444.72;5079454;28;20048;-72
2021/03/05 10:37:03;;;;;;;5.63;1.20;;;;;;;3.70;55.47;101447.31;5078243;28;20055;-77
2021/03/05 10:39:34;;;;;;;3.92;1.40;;;;;;;3.53;57.54;101452.78;5078157;28;20357;-72
2021/03/05 10:42:05;;;;;;;4.18;1.45;;;;;;;3.73;57.56;101435.84;5043963;28;20057;-76
2021/03/05 10:44:33;;;;;;;5.68;1.38;;;;;;;3.76;57.40;101447.25;5077021;28;20071;-75
2021/03/05 10:47:02;;;;;;;5.10;2.22;;;;;;;4.04;57.08;101443.41;5077862;28;20452;-76
2021/03/05 10:49:29;;;;;;;3.03;1.70;;;;;;;4.19;56.92;101444.94;5078141;28;20055;-73
2021/03/05 10:51:56;;;;;;;4.03;1.58;;;;;;;4.39;55.17;101428.81;5077704;28;20053;-77
2021/03/05 10:54:23;;;;;;;3.40;1.30;;;;;;;4.41;55.34;101452.59;5077084;28;20080;-75
2021/03/05 10:56:51;;;;;;;7.78;1.40;;;;;;;4.33;52.83;101450.94;5077997;28;20048;-72
2021/03/05 10:59:19;;;;;;;4.72;1.35;;;;;;;4.42;53.47;101455.19;5077510;28;20134;-76
2021/03/05 11:01:48;;;;;;;5.53;1.67;;;;;;;4.51;53.83;101469.19;5077595;28;20060;-77
2021/03/05 11:04:15;;;;;;;2.85;1.60;;;;;;;4.63;52.20;101458.41;5077344;28;20056;-72
2021/03/05 11:06:42;;;;;;;2.45;1.10;;;;;;;4.66;51.63;101468.97;5076166;28;20126;-75
2021/03/05 11:09:08;;;;;;;2.05;1.42;;;;;;;4.81;51.58;101465.22;5077598;28;20052;-76
2021/03/05 11:11:35;;;;;;;5.35;1.63;;;;;;;4.97;51.18;101472.88;5077359;28;20056;-74
2021/03/05 11:14:02;;;;;;;4.93;1.60;;;;;;;5.17;52.21;101464.59;5076283;28;20333;-74
2021/03/05 11:16:28;;;;;;;2.90;1.30;;;;;;;5.41;52.13;101468.56;5043018;28;20048;-75
2021/03/05 11:18:56;;;;;;;5.40;1.63;;;;;;;5.23;50.40;101467.13;5076874;28;20135;-74
2021/03/05 11:21:23;;;;;;;1.63;1.02;;;;;;;5.21;49.83;101470.72;5059234;28;20114;-74
2021/03/05 11:23:51;;;;;;;4.95;1.25;;;;;;;5.10;51.45;101455.91;5076705;28;20048;-72
2021/03/05 11:26:17;;;;;;;4.30;1.40;;;;;;;5.01;49.73;101464.88;5076836;28;20086;-72
2021/03/05 11:28:44;;;;;;;4.90;1.70;;;;;;;5.16;51.42;101468.16;5076835;28;20102;-76
2021/03/05 11:31:11;;;;;;;8.77;2.00;;;;;;;5.41;51.28;101470.38;5077120;28;20058;-77
2021/03/05 11:33:39;;;;;;;8.43;2.10;;;;;;;5.38;49.03;101473.94;5076762;28;20049;-74
2021/03/05 11:36:07;;;;;;;7.38;1.77;;;;;;;5.45;52.16;101469.38;5077103;28;20060;-73
2021/03/05 11:38:33;;;;;;;5.30;1.35;;;;;;;5.61;51.17;101475.28;5076898;28;20052;-74
2021/03/05 11:41:00;;;;;;;5.18;1.40;;;;;;;5.73;50.49;101468.00;5075556;28;20480;-75
2021/03/05 11:43:26;;;;;;;3.55;1.50;;;;;;;6.00;48.87;101466.59;5076992;28;20082;-71